Time;durP1;ratioP1;P1;durP2;ratioP2;P2;SDS_P1;SDS_P2;PMS_P1;PMS_P2;Temp;Humidity;BMP_temperature;BMP_pressure;BME280_temperature;BME280_humidity;BME280_pressure;Samples;Min_cycle;Max_cycle;Signal;HPM_P1;HPM_P2
2022/05/31 00:02:24;;;;;;;0.98;0.57;;;20.20;60.40;;;;;;5053153;28;20045;-61
2022/05/31 00:04:50;;;;;;;1.38;0.52;;;20.20;60.40;;;;;;5052516;28;20083;-61
2022/05/31 00:07:15;;;;;;;1.90;0.57;;;20.20;60.40;;;;;;5052043;28;20045;-61
2022/05/31 00:09:41;;;;;;;1.55;0.50;;;20.20;60.40;;;;;;5052118;28;20048;-59
2022/05/31 00:12:07;;;;;;;1.73;0.45;;;20.20;60.40;;;;;;5052746;28;20086;-62
2022/05/31 00:14:33;;;;;;;1.20;0.80;;;20.20;60.40;;;;;;5051743;28;20037;-60
2022/05/31 00:17:00;;;;;;;0.98;0.52;;;20.20;60.40;;;;;;5064517;28;20090;-60
2022/05/31 00:19:25;;;;;;;0.90;0.55;;;20.20;60.40;;;;;;5072675;28;20125;-60
2022/05/31 00:22:12;;;;;;;1.10;0.60;;;20.20;60.40;;;;;;5071391;28;20090;-60
2022/05/31 00:24:39;;;;;;;2.20;0.40;;;20.20;60.30;;;;;;5071952;28;20059;-60
2022/05/31 00:27:05;;;;;;;0.90;0.35;;;20.20;60.40;;;;;;5070829;28;20563;-60
2022/05/31 00:29:31;;;;;;;0.85;0.30;;;20.10;60.40;;;;;;5072701;28;20082;-60
2022/05/31 00:31:57;;;;;;;0.95;0.40;;;20.10;60.40;;;;;;5071674;28;20125;-60
2022/05/31 00:34:23;;;;;;;1.13;0.55;;;20.10;60.40;;;;;;5070627;28;20041;-61
2022/05/31 00:36:49;;;;;;;1.80;0.60;;;20.10;60.30;;;;;;5071963;28;20197;-61
2022/05/31 00:39:14;;;;;;;1.38;0.50;;;20.10;60.30;;;;;;5071303;28;20477;-60
2022/05/31 00:41:40;;;;;;;0.63;0.50;;;20.10;60.30;;;;;;5071739;28;20045;-61
2022/05/31 00:44:11;;;;;;;1.05;0.50;;;20.10;60.30;;;;;;5072425;28;20048;-61
2022/05/31 00:47:23;;;;;;;1.25;0.50;;;20.10;60.30;;;;;;5072514;28;20076;-61
2022/05/31 00:50:06;;;;;;;0.90;0.50;;;20.10;60.30;;;;;;5028726;28;20045;-61
2022/05/31 00:52:40;;;;;;;1.17;0.50;;;20.10;60.20;;;;;;5013717;28;20513;-61
2022/05/31 00:55:31;;;;;;;0.85;0.40;;;20.10;60.30;;;;;;5056906;28;20087;-61
2022/05/31 00:58:22;;;;;;;0.80;0.40;;;20.10;60.20;;;;;;5072597;28;20052;-61
2022/05/31 01:00:47;;;;;;;1.30;0.40;;;20.00;60.20;;;;;;5071551;28;20059;-61
2022/05/31 01:03:15;;;;;;;1.30;0.50;;;20.10;60.30;;;;;;5070451;28;20036;-61
2022/05/31 01:05:41;;;;;;;0.68;0.40;;;20.10;60.30;;;;;;5070712;28;20040;-61
2022/05/31 01:08:06;;;;;;;1.42;0.50;;;20.00;60.20;;;;;;5071815;28;20408;-61
2022/05/31 01:10:32;;;;;;;0.85;0.47;;;20.00;60.30;;;;;;5071556;28;20037;-61
2022/05/31 01:12:58;;;;;;;0.82;0.30;;;20.00;60.20;;;;;;5071824;28;20044;-61
2022/05/31 01:15:23;;;;;;;2.28;0.80;;;20.00;60.30;;;;;;5070958;28;20040;-61
2022/05/31 01:17:49;;;;;;;1.20;0.50;;;20.00;60.30;;;;;;5069786;28;20045;-61
2022/05/31 01:20:17;;;;;;;0.50;0.40;;;20.00;60.30;;;;;;5071950;28;20093;-61
2022/05/31 01:22:51;;;;;;;0.85;0.47;;;20.00;60.20;;;;;;5071897;28;20090;-61
2022/05/31 01:25:25;;;;;;;0.70;0.30;;;20.00;60.20;;;;;;5071396;28;20045;-60
2022/05/31 01:27:57;;;;;;;1.15;0.50;;;20.00;60.10;;;;;;5070589;28;20103;-61
2022/05/31 01:30:22;;;;;;;1.35;0.40;;;20.00;60.20;;;;;;5070098;28;20049;-61
2022/05/31 01:32:54;;;;;;;1.60;0.50;;;20.00;60.20;;;;;;5070132;28;20037;-61
2022/05/31 01:35:29;;;;;;;0.73;0.40;;;20.00;60.20;;;;;;5071493;28;20045;-61
2022/05/31 01:38:24;;;;;;;1.08;0.40;;;20.00;60.30;;;;;;5070893;28;20048;-61
2022/05/31 01:41:21;;;;;;;0.95;0.32;;;20.00;60.40;;;;;;5069948;28;20044;-61
2022/05/31 01:43:48;;;;;;;1.80;0.60;;;20.00;60.40;;;;;;5090494;28;20094;-61
2022/05/31 01:46:17;;;;;;;1.80;0.90;;;20.00;60.40;;;;;;5073425;28;20060;-61
2022/05/31 01:48:43;;;;;;;0.40;0.30;;;20.00;60.40;;;;;;5074027;28;20087;-62
2022/05/31 01:51:10;;;;;;;0.55;0.30;;;20.00;60.40;;;;;;5073477;28;20472;-62
2022/05/31 01:53:35;;;;;;;1.13;0.40;;;20.00;60.50;;;;;;5074079;28;20135;-62
2022/05/31 01:56:01;;;;;;;0.60;0.40;;;20.00;60.50;;;;;;5075137;28;20135;-61
2022/05/31 01:58:28;;;;;;;1.42;0.60;;;20.10;60.60;;;;;;5074412;28;20097;-61
2022/05/31 02:00:54;;;;;;;0.70;0.47;;;20.00;60.60;;;;;;5066965;28;20059;-61
2022/05/31 02:03:20;;;;;;;0.75;0.40;;;20.10;60.60;;;;;;5053814;28;20033;-61
2022/05/31 02:05:50;;;;;;;1.10;0.50;;;20.10;60.60;;;;;;5060683;28;20087;-61
2022/05/31 02:08:17;;;;;;;1.08;0.40;;;20.10;60.70;;;;;;5072504;28;20049;-61
2022/05/31 02:10:43;;;;;;;1.08;0.43;;;20.10;60.70;;;;;;5074903;28;20157;-61
2022/05/31 02:13:08;;;;;;;0.52;0.40;;;20.10;60.70;;;;;;5074457;28;20501;-61
2022/05/31 02:15:34;;;;;;;1.85;0.52;;;20.10;60.70;;;;;;5074853;28;20044;-61
2022/05/31 02:18:00;;;;;;;0.77;0.47;;;20.10;60.60;;;;;;5074568;28;20171;-61
2022/05/31 02:20:25;;;;;;;1.00;0.40;;;20.20;60.70;;;;;;5073716;28;20076;-61
2022/05/31 02:22:51;;;;;;;0.52;0.32;;;20.20;60.70;;;;;;5074580;28;20135;-61
2022/05/31 02:25:17;;;;;;;1.40;0.40;;;20.20;60.70;;;;;;5074849;28;20131;-61
2022/05/31 02:27:43;;;;;;;0.40;0.30;;;20.20;60.70;;;;;;5073613;28;20117;-61
2022/05/31 02:30:09;;;;;;;1.60;0.40;;;20.20;60.70;;;;;;5074322;28;20125;-61
2022/05/31 02:32:34;;;;;;;0.50;0.30;;;20.20;60.70;;;;;;5074834;28;20041;-61
2022/05/31 02:35:01;;;;;;;0.93;0.40;;;20.20;60.70;;;;;;5073763;28;20045;-61
2022/05/31 02:37:26;;;;;;;1.00;0.40;;;20.20;60.60;;;;;;5074676;28;20084;-61
2022/05/31 02:39:52;;;;;;;0.88;0.32;;;20.30;60.70;;;;;;5074300;28;20194;-61
2022/05/31 02:42:18;;;;;;;0.63;0.43;;;20.30;60.70;;;;;;5073971;28;20163;-62
2022/05/31 02:44:43;;;;;;;1.38;0.52;;;20.30;60.80;;;;;;5074043;28;20156;-61
2022/05/31 02:47:09;;;;;;;0.70;0.40;;;20.30;60.70;;;;;;5074475;28;20526;-61
2022/05/31 02:49:35;;;;;;;0.35;0.30;;;20.30;60.80;;;;;;5071495;28;20072;-61
2022/05/31 02:52:01;;;;;;;1.00;0.50;;;20.30;60.70;;;;;;5053649;28;20056;-61
2022/05/31 02:54:26;;;;;;;0.50;0.30;;;20.30;60.70;;;;;;5053335;28;20037;-61
2022/05/31 02:56:52;;;;;;;0.85;0.40;;;20.40;60.80;;;;;;5053551;28;20452;-61
2022/05/31 02:59:18;;;;;;;0.60;0.28;;;20.30;60.80;;;;;;5054161;28;20059;-61
2022/05/31 03:01:43;;;;;;;0.75;0.30;;;20.40;60.90;;;;;;5052837;28;20048;-60
2022/05/31 03:04:09;;;;;;;1.00;0.40;;;20.30;60.80;;;;;;5054111;28;20071;-60
2022/05/31 03:06:35;;;;;;;0.85;0.43;;;20.30;60.80;;;;;;5053713;28;20045;-59
2022/05/31 03:09:00;;;;;;;1.00;0.40;;;20.30;60.70;;;;;;5064412;28;20044;-60
2022/05/31 03:11:38;;;;;;;0.60;0.30;;;20.40;60.80;;;;;;5073469;28;20451;-61
2022/05/31 03:14:19;;;;;;;0.70;0.40;;;20.40;60.90;;;;;;5071056;28;20139;-60
2022/05/31 03:16:45;;;;;;;1.17;0.40;;;20.40;60.80;;;;;;5072731;28;20494;-61
2022/05/31 03:19:15;;;;;;;0.93;0.30;;;20.40;60.80;;;;;;5073655;28;20056;-60
2022/05/31 03:21:43;;;;;;;0.70;0.40;;;20.40;60.80;;;;;;5072037;28;20563;-61
2022/05/31 03:24:16;;;;;;;1.45;0.40;;;20.40;60.80;;;;;;5071796;28;20036;-61
2022/05/31 03:26:41;;;;;;;0.75;0.35;;;20.40;60.90;;;;;;5072099;28;20044;-60
2022/05/31 03:29:07;;;;;;;0.50;0.40;;;20.40;60.90;;;;;;5073399;28;20052;-61
2022/05/31 03:31:33;;;;;;;0.73;0.35;;;20.40;60.80;;;;;;5071487;28;20430;-61
2022/05/31 03:33:58;;;;;;;0.73;0.38;;;20.40;60.80;;;;;;5073383;28;20509;-60
2022/05/31 03:36:24;;;;;;;1.27;0.40;;;20.50;60.90;;;;;;5073573;28;20475;-61
2022/05/31 03:38:49;;;;;;;1.40;0.43;;;20.50;60.90;;;;;;5072254;28;20557;-60
2022/05/31 03:41:15;;;;;;;0.30;0.30;;;20.50;60.90;;;;;;5073615;28;20441;-60
2022/05/31 03:43:42;;;;;;;0.63;0.40;;;20.50;60.90;;;;;;5073235;28;20059;-60
2022/05/31 03:46:14;;;;;;;0.52;0.30;;;20.50;60.90;;;;;;5073159;28;20044;-60
2022/05/31 03:48:40;;;;;;;0.55;0.30;;;20.50;60.90;;;;;;5073182;28;20040;-60
2022/05/31 03:51:07;;;;;;;1.42;0.40;;;20.50;60.90;;;;;;5072500;28;20041;-60
2022/05/31 03:53:33;;;;;;;0.90;0.30;;;20.50;60.90;;;;;;5073246;28;20083;-60
2022/05/31 03:56:01;;;;;;;2.00;0.32;;;20.50;60.90;;;;;;5072892;28;20072;-60
2022/05/31 03:58:26;;;;;;;0.77;0.30;;;20.50;60.90;;;;;;5072423;28;20045;-61
2022/05/31 04:00:52;;;;;;;0.68;0.30;;;20.50;60.80;;;;;;5070682;28;20050;-60
2022/05/31 04:03:18;;;;;;;0.75;0.40;;;20.50;60.90;;;;;;5058143;28;20047;-60
2022/05/31 04:05:44;;;;;;;0.30;0.30;;;20.50;60.90;;;;;;5051526;28;20080;-60
2022/05/31 04:08:12;;;;;;;0.40;0.30;;;20.60;60.90;;;;;;5057872;28;20138;-60
2022/05/31 04:10:38;;;;;;;0.97;0.40;;;20.50;60.90;;;;;;5072837;28;20040;-60
2022/05/31 04:13:03;;;;;;;1.38;0.30;;;20.60;60.90;;;;;;5071834;28;20040;-60
2022/05/31 04:15:29;;;;;;;0.73;0.40;;;20.60;61.00;;;;;;5072525;28;20055;-60
2022/05/31 04:17:55;;;;;;;0.90;0.30;;;20.60;61.00;;;;;;5072322;28;20467;-61
2022/05/31 04:20:20;;;;;;;1.00;0.40;;;20.60;61.00;;;;;;5071125;28;20444;-60
2022/05/31 04:22:46;;;;;;;0.57;0.30;;;20.60;61.60;;;;;;5071967;28;20048;-60
2022/05/31 04:25:11;;;;;;;0.70;0.30;;;20.60;61.00;;;;;;5072425;28;20052;-60
2022/05/31 04:27:37;;;;;;;0.60;0.30;;;20.60;61.00;;;;;;5071897;28;20051;-60
2022/05/31 04:30:03;;;;;;;0.77;0.30;;;20.60;61.00;;;;;;5071626;28;20091;-60
2022/05/31 04:32:28;;;;;;;0.82;0.32;;;20.60;61.00;;;;;;5072050;28;20041;-60
2022/05/31 04:34:54;;;;;;;1.20;0.35;;;20.60;61.00;;;;;;5071557;28;20036;-60
2022/05/31 04:37:20;;;;;;;0.55;0.32;;;20.60;61.00;;;;;;5072688;28;20076;-60
2022/05/31 04:39:45;;;;;;;0.90;0.50;;;20.60;61.00;;;;;;5072150;28;20368;-60
2022/05/31 04:42:11;;;;;;;0.50;0.30;;;20.60;61.00;;;;;;5071649;28;20464;-60
2022/05/31 04:44:37;;;;;;;0.77;0.40;;;20.60;61.00;;;;;;5072147;28;20037;-60
2022/05/31 04:47:03;;;;;;;1.17;0.40;;;20.60;61.00;;;;;;5071281;28;20051;-60
2022/05/31 04:49:29;;;;;;;0.50;0.30;;;20.60;60.90;;;;;;5072610;28;20098;-60
2022/05/31 04:51:54;;;;;;;0.73;0.40;;;20.60;61.00;;;;;;5072166;28;20049;-60
2022/05/31 04:54:23;;;;;;;0.63;0.35;;;20.60;61.00;;;;;;5071653;28;20044;-60
2022/05/31 04:56:48;;;;;;;;;;;20.60;61.00;;;;;;5072361;28;20048;-60
2022/05/31 04:59:14;;;;;;;0.50;0.40;;;20.60;60.90;;;;;;5072153;28;19965;-60
2022/05/31 05:01:39;;;;;;;1.30;0.30;;;20.60;61.00;;;;;;5071629;28;20041;-60
2022/05/31 05:04:05;;;;;;;0.50;0.30;;;20.60;61.00;;;;;;5072081;28;20086;-60
2022/05/31 05:06:30;;;;;;;0.50;0.30;;;20.70;61.00;;;;;;5071762;28;20040;-60
2022/05/31 05:08:56;;;;;;;0.63;0.40;;;20.60;61.00;;;;;;5070769;28;20149;-60
2022/05/31 05:11:22;;;;;;;1.35;0.30;;;20.70;61.00;;;;;;5072166;28;20084;-60
2022/05/31 05:13:47;;;;;;;0.52;0.40;;;20.70;61.00;;;;;;5071542;28;20051;-60
2022/05/31 05:16:14;;;;;;;0.57;0.38;;;20.70;61.00;;;;;;5071028;28;20041;-61
2022/05/31 05:18:39;;;;;;;0.55;0.30;;;20.70;61.00;;;;;;5075304;28;20051;-60
2022/05/31 05:21:07;;;;;;;0.80;0.50;;;20.70;61.00;;;;;;5075628;28;20056;-60
2022/05/31 05:23:32;;;;;;;0.75;0.35;;;20.70;61.00;;;;;;5075050;28;20123;-60
2022/05/31 05:25:58;;;;;;;0.45;0.30;;;20.70;61.00;;;;;;5074867;28;20132;-60
2022/05/31 05:31:26;;;;;;;0.65;0.60;;;20.70;61.00;;;;;;5074768;28;20048;-60
2022/05/31 05:33:55;;;;;;;1.00;0.40;;;20.70;61.00;;;;;;5075545;28;20064;-60
2022/05/31 05:36:21;;;;;;;1.17;0.40;;;20.70;61.00;;;;;;5074772;28;20472;-59
2022/05/31 05:38:47;;;;;;;2.55;0.50;;;20.70;61.00;;;;;;5074918;28;20055;-60
2022/05/31 05:41:12;;;;;;;0.40;0.30;;;20.70;60.80;;;;;;5075607;28;20476;-60
2022/05/31 05:43:40;;;;;;;1.05;0.50;;;20.70;60.70;;;;;;5074753;28;20520;-60
2022/05/31 05:46:14;;;;;;;1.40;0.52;;;20.70;60.60;;;;;;5074802;28;20149;-60
2022/05/31 05:48:43;;;;;;;0.93;0.40;;;20.70;60.70;;;;;;5075351;28;20044;-60
2022/05/31 05:51:16;;;;;;;0.30;0.30;;;20.80;60.70;;;;;;5074256;28;20125;-59
2022/05/31 05:53:42;;;;;;;0.80;0.40;;;20.80;60.70;;;;;;5074305;28;20400;-61
2022/05/31 05:56:08;;;;;;;3.28;0.63;;;20.80;60.70;;;;;;5055582;28;20040;-59
2022/05/31 05:58:34;;;;;;;1.52;0.40;;;20.80;60.70;;;;;;5060350;28;20090;-59
2022/05/31 06:00:59;;;;;;;1.30;0.40;;;20.80;60.70;;;;;;5074813;28;20052;-59
2022/05/31 06:03:35;;;;;;;1.25;0.50;;;20.90;60.70;;;;;;5075462;28;20050;-59
2022/05/31 06:06:00;;;;;;;1.00;0.40;;;20.90;60.70;;;;;;5072443;28;20782;-59
2022/05/31 06:08:28;;;;;;;0.98;0.60;;;20.90;60.70;;;;;;5074343;28;20476;-59
2022/05/31 06:11:12;;;;;;;1.00;0.30;;;20.90;60.70;;;;;;5073529;28;20567;-61
2022/05/31 06:13:56;;;;;;;0.60;0.40;;;20.90;60.80;;;;;;5073019;28;20048;-60
2022/05/31 06:16:24;;;;;;;0.93;0.38;;;20.90;60.80;;;;;;5074005;28;20051;-60
2022/05/31 06:19:08;;;;;;;1.45;0.52;;;20.90;60.80;;;;;;5069654;28;20051;-61
2022/05/31 06:21:34;;;;;;;3.70;0.50;;;21.00;60.90;;;;;;5074344;28;20067;-61
2022/05/31 06:24:00;;;;;;;1.05;0.65;;;21.00;61.00;;;;;;5072770;28;20369;-61
2022/05/31 06:26:27;;;;;;;1.42;0.40;;;21.00;61.20;;;;;;5068743;28;20056;-61
2022/05/31 06:28:52;;;;;;;0.95;0.40;;;21.10;62.00;;;;;;5051765;28;20512;-62
2022/05/31 06:31:18;;;;;;;3.55;0.40;;;21.10;61.50;;;;;;5054577;28;20072;-62
2022/05/31 06:33:44;;;;;;;2.22;0.40;;;21.10;61.50;;;;;;5053639;28;20076;-61
2022/05/31 06:36:10;;;;;;;1.02;0.40;;;21.10;61.50;;;;;;5057577;28;20040;-61
2022/05/31 06:38:35;;;;;;;2.70;0.68;;;21.10;61.60;;;;;;5074432;28;20049;-61
2022/05/31 06:41:01;;;;;;;1.02;0.30;;;21.20;61.60;;;;;;5073428;28;20532;-61
2022/05/31 06:43:27;;;;;;;1.52;0.40;;;21.20;61.60;;;;;;5074509;28;20060;-60
2022/05/31 06:45:52;;;;;;;3.22;0.50;;;21.20;61.70;;;;;;5073715;28;20515;-59
2022/05/31 06:48:18;;;;;;;1.63;0.45;;;21.20;61.70;;;;;;5073711;28;20149;-59
2022/05/31 06:50:43;;;;;;;1.40;0.50;;;21.30;61.70;;;;;;5073939;28;20052;-59
2022/05/31 06:58:41;;;;;;;2.00;0.38;;;21.30;61.90;;;;;;5073183;28;20488;-60
2022/05/31 07:01:06;;;;;;;3.45;0.50;;;21.30;61.80;;;;;;5073513;28;20047;-60
2022/05/31 07:03:32;;;;;;;0.95;0.40;;;21.40;61.90;;;;;;5074223;28;20041;-61
2022/05/31 07:05:58;;;;;;;3.55;0.50;;;21.40;61.90;;;;;;5073381;28;20036;-61
2022/05/31 07:08:24;;;;;;;0.98;0.50;;;21.40;61.80;;;;;;5072912;28;20048;-60
2022/05/31 07:10:49;;;;;;;0.57;0.32;;;21.40;61.90;;;;;;5073128;28;20043;-61
2022/05/31 07:13:15;;;;;;;1.48;0.35;;;21.50;61.80;;;;;;5073554;28;20040;-60
2022/05/31 07:15:41;;;;;;;2.20;0.50;;;21.50;61.80;;;;;;5072488;28;20064;-60
2022/05/31 07:18:07;;;;;;;1.48;0.40;;;21.50;61.90;;;;;;5072656;28;20076;-60
2022/05/31 07:20:32;;;;;;;1.50;0.50;;;21.50;61.90;;;;;;5072891;28;20098;-60
2022/05/31 07:22:58;;;;;;;2.22;0.50;;;21.50;61.80;;;;;;5071879;28;20044;-60
2022/05/31 07:25:24;;;;;;;1.75;0.50;;;21.50;61.90;;;;;;5073598;28;20054;-60
2022/05/31 07:27:50;;;;;;;2.10;0.40;;;21.60;61.80;;;;;;5072870;28;20556;-60
2022/05/31 07:30:16;;;;;;;1.85;0.50;;;21.60;61.80;;;;;;5072256;28;20043;-61
2022/05/31 07:32:42;;;;;;;3.85;0.40;;;21.60;61.80;;;;;;5067597;28;20127;-61
2022/05/31 07:35:08;;;;;;;0.82;0.40;;;21.60;61.80;;;;;;5073441;28;20116;-61
2022/05/31 07:37:33;;;;;;;3.03;0.50;;;21.60;61.80;;;;;;5072584;28;20507;-62
2022/05/31 07:39:59;;;;;;;2.30;0.40;;;21.70;61.90;;;;;;5072562;28;20049;-62
2022/05/31 07:42:24;;;;;;;1.63;0.40;;;21.70;61.90;;;;;;5073116;28;20056;-62
2022/05/31 07:44:56;;;;;;;1.33;0.40;;;21.70;62.00;;;;;;5072411;28;20043;-61
2022/05/31 07:47:25;;;;;;;1.83;0.40;;;21.70;62.10;;;;;;5072826;28;20484;-61
2022/05/31 07:49:50;;;;;;;2.08;0.40;;;21.70;62.00;;;;;;5072193;28;20045;-62
2022/05/31 07:52:16;;;;;;;0.60;0.40;;;21.70;61.90;;;;;;5072882;28;20105;-61
2022/05/31 07:54:42;;;;;;;2.67;0.47;;;21.70;61.90;;;;;;5072623;28;20426;-62
2022/05/31 07:57:07;;;;;;;1.77;0.45;;;21.70;61.90;;;;;;5072404;28;20127;-61
2022/05/31 07:59:33;;;;;;;1.20;0.35;;;21.70;61.90;;;;;;5073117;28;20047;-61
2022/05/31 08:01:59;;;;;;;1.45;0.30;;;21.70;61.90;;;;;;5072705;28;20053;-61
2022/05/31 08:04:24;;;;;;;1.10;0.40;;;21.70;61.90;;;;;;5059048;28;20047;-61
2022/05/31 08:06:51;;;;;;;2.97;0.40;;;21.70;62.00;;;;;;5072559;28;20044;-62
2022/05/31 08:09:17;;;;;;;1.67;0.40;;;21.80;62.00;;;;;;5072460;28;20045;-61
2022/05/31 08:11:43;;;;;;;5.22;0.50;;;21.80;61.90;;;;;;5070888;28;20051;-61
2022/05/31 08:14:08;;;;;;;1.27;0.50;;;21.80;61.80;;;;;;5072915;28;20046;-62
2022/05/31 08:16:34;;;;;;;3.17;0.60;;;21.80;61.70;;;;;;5072874;28;20484;-60
2022/05/31 08:19:00;;;;;;;7.15;0.80;;;21.80;61.70;;;;;;5071266;28;20138;-61
2022/05/31 08:21:28;;;;;;;6.05;1.13;;;21.80;61.80;;;;;;5071415;28;20067;-61
2022/05/31 08:23:58;;;;;;;6.53;0.98;;;21.80;61.40;;;;;;5072210;28;20053;-62
2022/05/31 08:26:24;;;;;;;8.27;1.27;;;21.80;61.30;;;;;;5071648;28;20464;-61
2022/05/31 08:28:49;;;;;;;5.75;1.00;;;21.80;61.40;;;;;;5072044;28;20091;-61
2022/05/31 08:31:17;;;;;;;11.75;0.90;;;21.80;61.30;;;;;;5064038;28;20043;-61
2022/05/31 08:33:42;;;;;;;6.22;0.90;;;21.80;61.10;;;;;;5050027;28;20066;-61
2022/05/31 08:36:08;;;;;;;8.38;0.80;;;21.80;61.00;;;;;;5052763;28;20548;-61
2022/05/31 08:38:34;;;;;;;6.75;0.80;;;21.90;61.00;;;;;;5053145;28;20044;-61
2022/05/31 08:41:10;;;;;;;5.72;0.63;;;21.80;60.90;;;;;;5051455;28;20401;-62
2022/05/31 08:43:41;;;;;;;8.25;0.70;;;21.80;60.70;;;;;;5059901;28;20045;-60
2022/05/31 08:46:10;;;;;;;4.93;0.60;;;21.80;60.60;;;;;;5072129;28;20127;-60
2022/05/31 08:48:39;;;;;;;4.88;0.70;;;21.80;60.50;;;;;;5070857;28;20076;-60
2022/05/31 08:56:59;;;;;;;4.68;0.80;;;21.80;60.70;;;;;;5071320;28;20053;-61
2022/05/31 08:59:42;;;;;;;2.80;0.60;;;21.80;60.80;;;;;;5070976;28;20048;-60
2022/05/31 09:02:21;;;;;;;6.47;0.70;;;21.80;60.80;;;;;;5071662;28;20542;-60
2022/05/31 09:05:08;;;;;;;4.70;0.68;;;21.80;60.80;;;;;;5070500;28;20075;-61
2022/05/31 09:07:42;;;;;;;7.28;0.73;;;21.90;60.80;;;;;;5069929;28;20052;-61
2022/05/31 09:10:19;;;;;;;6.47;0.60;;;21.80;60.80;;;;;;5071234;28;20415;-61
2022/05/31 09:12:54;;;;;;;5.28;0.80;;;21.90;60.80;;;;;;5070424;28;20470;-61
2022/05/31 09:15:26;;;;;;;3.30;0.50;;;21.90;60.80;;;;;;5071022;28;20369;-61
2022/05/31 09:18:04;;;;;;;4.30;0.63;;;21.90;60.80;;;;;;5066850;28;20045;-61
2022/05/31 09:20:30;;;;;;;;;;;21.90;60.80;;;;;;5066992;28;20044;-61
2022/05/31 09:22:55;;;;;;;3.75;0.60;;;21.90;60.90;;;;;;5070300;28;19920;-61
2022/05/31 09:25:21;;;;;;;5.22;1.13;;;21.90;60.90;;;;;;5071778;28;20044;-60
2022/05/31 09:27:48;;;;;;;6.93;0.80;;;21.90;60.80;;;;;;5071620;28;20067;-61
2022/05/31 09:30:25;;;;;;;7.20;0.75;;;21.90;60.80;;;;;;5071194;28;20052;-61
2022/05/31 09:33:12;;;;;;;2.80;0.50;;;21.90;60.80;;;;;;5071372;28;20056;-61
2022/05/31 09:36:19;;;;;;;3.83;0.60;;;21.90;61.50;;;;;;5070052;28;20033;-61
2022/05/31 09:39:20;;;;;;;3.88;0.80;;;21.90;60.80;;;;;;5029172;28;20049;-61
2022/05/31 09:41:58;;;;;;;4.05;0.60;;;21.90;60.80;;;;;;5007616;28;20137;-60
2022/05/31 09:44:26;;;;;;;;;;;21.90;60.80;;;;;;5057262;28;20056;-60
2022/05/31 09:47:04;;;;;;;6.47;0.70;;;21.90;60.70;;;;;;5052055;28;19942;-60
2022/05/31 09:49:46;;;;;;;4.28;0.65;;;21.90;60.30;;;;;;5068984;28;20049;-60
2022/05/31 09:52:34;;;;;;;3.35;0.70;;;21.90;60.00;;;;;;5072422;28;20125;-60
2022/05/31 09:58:11;;;;;;;4.93;0.80;;;21.90;58.70;;;;;;5070838;28;20085;-60
2022/05/31 10:00:46;;;;;;;2.90;0.52;;;21.90;58.30;;;;;;5068100;28;20191;-60
2022/05/31 10:03:13;;;;;;;3.25;0.73;;;21.90;58.10;;;;;;5059720;28;20472;-60
2022/05/31 10:05:40;;;;;;;2.40;0.88;;;21.80;58.00;;;;;;5063157;28;20488;-61
2022/05/31 10:08:31;;;;;;;3.10;0.50;;;21.80;58.00;;;;;;5065127;28;20055;-61
2022/05/31 10:10:56;;;;;;;4.40;1.00;;;21.80;58.00;;;;;;5060866;28;20037;-59
2022/05/31 10:13:40;;;;;;;4.20;0.68;;;21.80;58.30;;;;;;5061196;28;20063;-60
2022/05/31 10:16:19;;;;;;;3.55;0.70;;;21.80;58.50;;;;;;5062177;28;20049;-60
2022/05/31 10:18:50;;;;;;;3.83;1.02;;;21.80;58.70;;;;;;5066462;28;20056;-60
2022/05/31 10:21:40;;;;;;;2.78;1.00;;;21.80;59.10;;;;;;5063565;28;20052;-60
2022/05/31 10:24:23;;;;;;;4.35;0.70;;;21.80;59.40;;;;;;5067661;28;20622;-60
2022/05/31 10:27:21;;;;;;;5.80;0.63;;;21.90;59.80;;;;;;5063583;28;20090;-60
2022/05/31 10:29:49;;;;;;;2.35;0.60;;;21.80;59.60;;;;;;5053622;28;20114;-60
2022/05/31 10:32:31;;;;;;;6.40;0.80;;;21.90;59.70;;;;;;5053949;28;20052;-60
2022/05/31 10:35:11;;;;;;;6.93;1.10;;;21.80;59.60;;;;;;5053684;28;20052;-60
2022/05/31 10:37:37;;;;;;;3.55;0.98;;;21.90;59.70;;;;;;5053307;28;20077;-61
2022/05/31 10:40:07;;;;;;;3.72;0.75;;;21.90;59.70;;;;;;5051994;28;20077;-60
2022/05/31 10:42:34;;;;;;;4.70;0.90;;;21.90;59.70;;;;;;5054413;28;20408;-60
2022/05/31 10:45:02;;;;;;;4.22;0.75;;;21.90;59.60;;;;;;5052140;28;20057;-61
2022/05/31 10:47:28;;;;;;;6.43;0.90;;;22.00;59.60;;;;;;5052567;28;20064;-60
2022/05/31 10:49:53;;;;;;;3.65;0.90;;;22.00;59.70;;;;;;5054183;28;20041;-61
2022/05/31 10:52:48;;;;;;;10.40;1.08;;;22.00;59.60;;;;;;5052798;28;20405;-60
2022/05/31 10:55:26;;;;;;;9.55;1.48;;;22.00;59.40;;;;;;5069256;28;20098;-60
2022/05/31 10:58:16;;;;;;;7.63;1.40;;;22.00;59.40;;;;;;5053148;28;20044;-60
2022/05/31 11:00:53;;;;;;;8.30;1.95;;;22.00;59.60;;;;;;5061948;28;20066;-60
2022/05/31 11:03:53;;;;;;;9.27;2.17;;;22.00;59.60;;;;;;5074551;28;20098;-60
2022/05/31 11:06:39;;;;;;;16.65;3.05;;;22.00;59.60;;;;;;5072951;28;20507;-60
2022/05/31 11:12:17;;;;;;;15.88;2.75;;;21.90;59.50;;;;;;5061275;28;20037;-60
2022/05/31 11:14:59;;;;;;;16.83;3.47;;;21.90;59.60;;;;;;5063041;28;20447;-61
2022/05/31 11:17:39;;;;;;;15.05;3.58;;;21.90;59.60;;;;;;5063775;28;20036;-60
2022/05/31 11:20:09;;;;;;;13.35;3.30;;;21.90;59.60;;;;;;5060977;28;20045;-60
2022/05/31 11:23:02;;;;;;;14.73;3.10;;;21.90;59.70;;;;;;5045084;28;20141;-60
2022/05/31 11:25:51;;;;;;;16.42;3.63;;;21.90;59.60;;;;;;5062872;28;20048;-61
2022/05/31 11:28:32;;;;;;;12.93;3.05;;;22.00;59.70;;;;;;5060826;28;20041;-61
2022/05/31 11:31:16;;;;;;;13.95;2.92;;;22.00;59.70;;;;;;5060526;28;20791;-59
2022/05/31 11:34:25;;;;;;;10.15;2.90;;;21.90;59.40;;;;;;5059389;28;20400;-60
2022/05/31 11:37:01;;;;;;;12.52;2.88;;;21.90;57.70;;;;;;5042101;28;20498;-59
2022/05/31 11:39:57;;;;;;;11.00;2.60;;;21.90;57.30;;;;;;5055907;28;20124;-59
2022/05/31 11:43:01;;;;;;;10.63;3.08;;;21.90;56.90;;;;;;5069714;28;20526;-60
2022/05/31 11:45:53;;;;;;;12.80;2.28;;;21.90;56.40;;;;;;5055247;28;20541;-60
2022/05/31 11:48:51;;;;;;;10.10;2.35;;;21.80;56.00;;;;;;5072053;28;20094;-59
2022/05/31 11:51:48;;;;;;;8.90;2.22;;;21.80;55.80;;;;;;5080747;28;20060;-59
2022/05/31 11:54:24;;;;;;;7.38;2.00;;;21.80;55.60;;;;;;5071615;28;20056;-61
2022/05/31 11:56:55;;;;;;;10.30;2.35;;;21.80;55.40;;;;;;5070610;28;20066;-60
2022/05/31 11:59:31;;;;;;;10.23;2.15;;;21.80;55.20;;;;;;5072423;28;20051;-60
2022/05/31 12:02:20;;;;;;;8.07;2.20;;;21.80;55.40;;;;;;5071091;28;20404;-60
2022/05/31 12:04:57;;;;;;;6.72;2.00;;;21.80;55.40;;;;;;5071162;28;20499;-60
2022/05/31 12:07:27;;;;;;;5.70;1.73;;;21.80;55.50;;;;;;5071554;28;20044;-59
2022/05/31 12:09:56;;;;;;;5.53;1.50;;;21.90;55.50;;;;;;5071069;28;20033;-60
2022/05/31 12:12:30;;;;;;;6.30;1.73;;;21.80;55.40;;;;;;5054474;28;20059;-61
2022/05/31 12:15:01;;;;;;;9.32;2.15;;;21.80;55.40;;;;;;5072268;28;20439;-62
2022/05/31 12:17:35;;;;;;;5.00;1.50;;;21.80;55.50;;;;;;5070260;28;20390;-60
2022/05/31 12:20:19;;;;;;;6.00;2.25;;;21.80;55.60;;;;;;5071291;28;20045;-59
2022/05/31 12:22:50;;;;;;;9.13;1.70;;;21.80;55.50;;;;;;5067318;28;20047;-60
2022/05/31 12:25:23;;;;;;;5.75;1.48;;;21.80;55.50;;;;;;5061048;28;20094;-60
2022/05/31 12:27:56;;;;;;;7.57;1.70;;;21.90;55.40;;;;;;5061724;28;20059;-60
2022/05/31 12:30:33;;;;;;;5.90;1.45;;;21.80;55.40;;;;;;5080024;28;20071;-60
2022/05/31 12:32:59;;;;;;;4.07;1.45;;;21.80;55.50;;;;;;5057074;28;20268;-60
2022/05/31 12:35:31;;;;;;;5.22;1.50;;;21.90;55.70;;;;;;5062834;28;20120;-60
2022/05/31 12:38:02;;;;;;;6.57;1.40;;;21.80;55.80;;;;;;5061405;28;20067;-59
2022/05/31 12:40:34;;;;;;;8.60;1.88;;;21.80;55.90;;;;;;5062104;28;20095;-59
2022/05/31 12:43:00;;;;;;;4.95;1.30;;;21.80;56.00;;;;;;5063303;28;20455;-60
2022/05/31 12:45:37;;;;;;;5.40;1.42;;;21.80;56.10;;;;;;5064902;28;20048;-60
2022/05/31 12:48:23;;;;;;;7.22;1.67;;;21.90;56.90;;;;;;5078587;28;20896;-59
2022/05/31 12:50:49;;;;;;;4.88;1.40;;;21.90;56.30;;;;;;5066531;28;20040;-60
2022/05/31 12:53:19;;;;;;;7.93;1.50;;;21.90;56.30;;;;;;5061950;28;20094;-59
2022/05/31 12:55:45;;;;;;;5.82;1.77;;;21.90;56.50;;;;;;5057354;28;20045;-60
2022/05/31 12:58:35;;;;;;;3.35;1.35;;;21.90;56.60;;;;;;5063693;28;20047;-60
2022/05/31 13:01:13;;;;;;;5.72;1.67;;;21.90;56.60;;;;;;5064680;28;20052;-59
2022/05/31 13:03:54;;;;;;;3.53;1.55;;;21.90;56.80;;;;;;5062778;28;20123;-60
2022/05/31 13:06:28;;;;;;;4.10;1.60;;;21.90;56.80;;;;;;5062865;28;20489;-60
2022/05/31 13:08:59;;;;;;;4.95;1.48;;;21.80;56.90;;;;;;5058858;28;20155;-60
2022/05/31 13:20:20;;;;;;;20.15;11.07;;;21.80;57.30;;;;;;5066567;28;20470;-62
2022/05/31 13:22:57;;;;;;;26.15;10.98;;;21.80;57.20;;;;;;5063409;28;20606;-62
2022/05/31 13:25:27;;;;;;;12.82;6.20;;;21.80;57.40;;;;;;5066798;28;20052;-62
2022/05/31 13:27:57;;;;;;;16.67;6.20;;;21.80;57.40;;;;;;5058685;28;20468;-63
2022/05/31 13:30:29;;;;;;;11.60;5.75;;;21.80;57.60;;;;;;5060729;28;20045;-62
2022/05/31 13:32:55;;;;;;;14.82;4.53;;;21.90;57.90;;;;;;5059846;28;20530;-60
2022/05/31 13:35:29;;;;;;;11.57;4.65;;;21.90;58.00;;;;;;5059975;28;20479;-62